Time;durP1;ratioP1;P1;durP2;ratioP2;P2;SDS_P1;SDS_P2;PMS_P1;PMS_P2;Temp;Humidity;BMP_temperature;BMP_pressure;BME280_temperature;BME280_humidity;BME280_pressure;Samples;Min_cycle;Max_cycle;Signal;HPM_P1;HPM_P2
2022/06/30 00:01:45;;;;;;;7.00;3.95;;;;;;;;;;5055188;28;20052;-74
2022/06/30 00:04:11;;;;;;;6.28;3.83;;;;;;;;;;5051534;28;20032;-75
2022/06/30 00:06:40;;;;;;;7.70;3.60;;;;;;;;;;5060663;28;20386;-74
2022/06/30 00:09:07;;;;;;;7.15;3.55;;;;;;;;;;5059907;28;20040;-74
2022/06/30 00:11:33;;;;;;;6.05;4.07;;;;;;;;;;5052074;28;20137;-75
2022/06/30 00:14:00;;;;;;;8.02;3.60;;;;;;;;;;5053048;28;20028;-75
2022/06/30 00:16:26;;;;;;;5.90;3.83;;;;;;;;;;5054774;28;20474;-75
2022/06/30 00:18:52;;;;;;;8.57;3.90;;;;;;;;;;5055102;28;20029;-75
2022/06/30 00:21:18;;;;;;;6.55;4.05;;;;;;;;;;5054123;28;20036;-74
2022/06/30 00:23:44;;;;;;;6.60;3.65;;;;;;;;;;5057916;28;20028;-74
2022/06/30 00:26:10;;;;;;;6.03;3.90;;;;;;;;;;5054592;28;20501;-74
2022/06/30 00:28:37;;;;;;;7.25;3.88;;;;;;;;;;5056461;28;20033;-74
2022/06/30 00:31:03;;;;;;;7.72;3.80;;;;;;;;;;5052422;28;20036;-73
2022/06/30 00:36:34;;;;;;;7.32;3.38;;;;;;;;;;5250123;22;20105;-75
2022/06/30 00:39:00;;;;;;;5.57;3.78;;;;;;;;;;5092459;28;20057;-77
2022/06/30 00:41:26;;;;;;;6.97;4.13;;;;;;;;;;5092544;28;20103;-76
2022/06/30 00:43:52;;;;;;;7.15;3.55;;;;;;;;;;5091288;28;20024;-76
2022/06/30 00:46:18;;;;;;;7.30;3.38;;;;;;;;;;5091906;28;20825;-76
2022/06/30 00:48:44;;;;;;;6.93;3.60;;;;;;;;;;5074096;28;20472;-75
2022/06/30 00:51:11;;;;;;;4.80;3.47;;;;;;;;;;5071597;28;20473;-74
2022/06/30 00:53:39;;;;;;;8.30;3.67;;;;;;;;;;5092423;28;20069;-75
2022/06/30 00:56:05;;;;;;;6.97;3.95;;;;;;;;;;5088136;28;20022;-76
2022/06/30 00:58:33;;;;;;;5.65;3.60;;;;;;;;;;5089919;28;20027;-76
2022/06/30 01:00:59;;;;;;;10.63;3.58;;;;;;;;;;5090055;28;20024;-74
2022/06/30 01:03:25;;;;;;;5.40;3.97;;;;;;;;;;5089550;28;20541;-74
2022/06/30 01:05:52;;;;;;;10.13;3.95;;;;;;;;;;5072277;28;20677;-72
2022/06/30 01:08:18;;;;;;;7.65;3.90;;;;;;;;;;5073915;28;20059;-74
2022/06/30 01:13:29;;;;;;;6.82;3.72;;;;;;;;;;5091486;28;20047;-75
2022/06/30 01:15:55;;;;;;;6.25;3.55;;;;;;;;;;5091386;28;20044;-75
2022/06/30 01:18:21;;;;;;;9.75;3.97;;;;;;;;;;5091636;28;20043;-72
2022/06/30 01:20:47;;;;;;;6.47;3.60;;;;;;;;;;5073241;28;20059;-72
2022/06/30 01:23:13;;;;;;;5.32;3.60;;;;;;;;;;5090701;28;20016;-76
2022/06/30 01:25:39;;;;;;;4.32;3.78;;;;;;;;;;5091928;28;20051;-74
2022/06/30 01:28:05;;;;;;;5.85;3.60;;;;;;;;;;5088951;28;20020;-74
2022/06/30 01:30:32;;;;;;;5.72;3.67;;;;;;;;;;5090143;28;20066;-73
2022/06/30 01:32:58;;;;;;;9.27;3.53;;;;;;;;;;5089022;28;20028;-73
2022/06/30 01:35:24;;;;;;;6.63;3.50;;;;;;;;;;5090981;28;20028;-74
2022/06/30 01:37:50;;;;;;;5.70;3.72;;;;;;;;;;5079252;28;20440;-74
2022/06/30 01:40:16;;;;;;;7.10;3.90;;;;;;;;;;5079816;28;20124;-74
2022/06/30 01:42:42;;;;;;;8.50;3.75;;;;;;;;;;5083066;28;20449;-74
2022/06/30 01:45:09;;;;;;;5.85;3.38;;;;;;;;;;5075369;28;20039;-74
2022/06/30 01:47:36;;;;;;;7.80;3.72;;;;;;;;;;5072634;28;20055;-73
2022/06/30 01:50:03;;;;;;;5.57;3.47;;;;;;;;;;5077252;28;20058;-73
2022/06/30 01:52:29;;;;;;;6.93;3.70;;;;;;;;;;5080842;28;20115;-74
2022/06/30 01:54:55;;;;;;;8.32;3.70;;;;;;;;;;5080374;28;20024;-74
2022/06/30 01:57:21;;;;;;;4.85;3.70;;;;;;;;;;5070465;28;20082;-74
2022/06/30 01:59:47;;;;;;;6.15;3.50;;;;;;;;;;5073082;28;20056;-74
2022/06/30 02:02:13;;;;;;;7.72;3.67;;;;;;;;;;5077392;28;20016;-74
2022/06/30 02:04:48;;;;;;;7.18;3.55;;;;;;;;;;5071747;28;20044;-74
2022/06/30 02:07:15;;;;;;;4.35;3.40;;;;;;;;;;5083272;28;20032;-74
2022/06/30 02:09:41;;;;;;;4.82;3.30;;;;;;;;;;5082454;28;20039;-76
2022/06/30 02:12:51;;;;;;;5.55;3.47;;;;;;;;;;5079556;28;20035;-74
2022/06/30 02:14:57;;;;;;;6.65;3.40;;;;;;;;;;5070610;28;20082;-74
2022/06/30 02:17:23;;;;;;;4.88;3.28;;;;;;;;;;5073815;28;20039;-74
2022/06/30 02:19:49;;;;;;;5.75;3.60;;;;;;;;;;5077057;28;20020;-75
2022/06/30 02:22:16;;;;;;;4.22;3.15;;;;;;;;;;5083864;28;20093;-74
2022/06/30 02:24:42;;;;;;;6.00;3.40;;;;;;;;;;5073108;28;20383;-75
2022/06/30 02:27:08;;;;;;;4.63;3.65;;;;;;;;;;5080818;28;20085;-75
2022/06/30 02:29:34;;;;;;;4.80;3.10;;;;;;;;;;5078350;28;20040;-74
2022/06/30 02:32:00;;;;;;;8.43;3.38;;;;;;;;;;5073568;28;20024;-74
2022/06/30 02:34:28;;;;;;;4.57;3.35;;;;;;;;;;5073205;28;20028;-76
2022/06/30 02:36:54;;;;;;;6.18;3.03;;;;;;;;;;5066553;28;20029;-74
2022/06/30 02:39:20;;;;;;;5.30;3.30;;;;;;;;;;5085435;28;20063;-74
2022/06/30 02:41:46;;;;;;;6.07;3.47;;;;;;;;;;5088409;28;20028;-73
2022/06/30 02:44:12;;;;;;;7.18;3.22;;;;;;;;;;5083470;28;20394;-74
2022/06/30 02:46:38;;;;;;;4.53;3.00;;;;;;;;;;5075684;28;20020;-73
2022/06/30 02:49:04;;;;;;;6.10;3.40;;;;;;;;;;5083987;28;20503;-74
2022/06/30 02:51:31;;;;;;;5.35;3.00;;;;;;;;;;5081470;28;20082;-73
2022/06/30 02:53:57;;;;;;;9.50;3.20;;;;;;;;;;5076690;28;20099;-74
2022/06/30 02:56:23;;;;;;;4.45;3.10;;;;;;;;;;5074899;28;20021;-75
2022/06/30 02:58:49;;;;;;;6.15;3.28;;;;;;;;;;5076005;28;20021;-75
2022/06/30 03:01:16;;;;;;;5.63;3.20;;;;;;;;;;5078927;28;20520;-75
2022/06/30 03:03:42;;;;;;;5.32;3.30;;;;;;;;;;5074824;28;20827;-75
2022/06/30 03:06:08;;;;;;;8.23;3.35;;;;;;;;;;5088415;28;20035;-75
2022/06/30 03:08:34;;;;;;;6.13;3.10;;;;;;;;;;5084199;28;20023;-76
2022/06/30 03:11:00;;;;;;;4.00;3.40;;;;;;;;;;5077223;28;20028;-76
2022/06/30 03:13:26;;;;;;;3.75;3.17;;;;;;;;;;5076497;28;20024;-73
2022/06/30 03:15:52;;;;;;;7.22;3.30;;;;;;;;;;5080114;28;20073;-74
2022/06/30 03:18:19;;;;;;;4.80;3.20;;;;;;;;;;5075870;28;20024;-74
2022/06/30 03:20:45;;;;;;;3.72;3.03;;;;;;;;;;5076490;28;20031;-73
2022/06/30 03:23:11;;;;;;;5.22;3.70;;;;;;;;;;5079836;28;20021;-76
2022/06/30 03:25:37;;;;;;;5.85;3.05;;;;;;;;;;5078887;28;20033;-75
2022/06/30 03:28:04;;;;;;;4.85;3.08;;;;;;;;;;5082705;28;20381;-74
2022/06/30 03:30:30;;;;;;;5.45;3.47;;;;;;;;;;5080385;28;20036;-75
2022/06/30 03:32:56;;;;;;;3.90;3.00;;;;;;;;;;5082636;28;20071;-74
2022/06/30 03:35:22;;;;;;;5.78;3.15;;;;;;;;;;5071603;28;20037;-73
2022/06/30 03:37:48;;;;;;;6.65;3.30;;;;;;;;;;5083952;28;20052;-75
2022/06/30 03:40:15;;;;;;;13.95;4.47;;;;;;;;;;5073885;28;20029;-73
2022/06/30 03:42:41;;;;;;;5.63;3.20;;;;;;;;;;5081113;28;20059;-75
2022/06/30 03:45:07;;;;;;;5.38;3.03;;;;;;;;;;5083771;28;20474;-75
2022/06/30 03:47:33;;;;;;;5.55;3.20;;;;;;;;;;5060943;28;20394;-74
2022/06/30 03:49:59;;;;;;;7.32;3.83;;;;;;;;;;5081806;28;20773;-75
2022/06/30 03:52:25;;;;;;;8.65;3.55;;;;;;;;;;5075350;28;20191;-76
2022/06/30 03:54:51;;;;;;;4.55;3.35;;;;;;;;;;5073198;28;20409;-74
2022/06/30 03:57:17;;;;;;;4.32;3.33;;;;;;;;;;5079339;28;20371;-76
2022/06/30 03:59:43;;;;;;;12.02;3.70;;;;;;;;;;5075258;28;20032;-73
2022/06/30 04:02:09;;;;;;;6.07;3.42;;;;;;;;;;5077987;28;20044;-74
2022/06/30 04:04:36;;;;;;;11.40;4.25;;;;;;;;;;5077464;28;20063;-76
2022/06/30 04:07:02;;;;;;;8.25;3.50;;;;;;;;;;5073753;28;20077;-77
2022/06/30 04:09:28;;;;;;;11.07;3.80;;;;;;;;;;5079776;28;20465;-76
2022/06/30 04:11:54;;;;;;;7.38;3.83;;;;;;;;;;5079745;28;20024;-77
2022/06/30 04:14:20;;;;;;;10.35;3.85;;;;;;;;;;5073700;28;20056;-74
2022/06/30 04:16:46;;;;;;;7.45;3.75;;;;;;;;;;5073263;28;20021;-77
2022/06/30 04:19:12;;;;;;;6.72;3.80;;;;;;;;;;5082706;28;20472;-77
2022/06/30 04:21:38;;;;;;;6.22;3.50;;;;;;;;;;5078540;28;20036;-78
2022/06/30 04:24:04;;;;;;;7.22;3.70;;;;;;;;;;5077733;28;20082;-74
2022/06/30 04:26:30;;;;;;;6.28;3.85;;;;;;;;;;5080142;28;20051;-77
2022/06/30 04:28:56;;;;;;;6.05;3.80;;;;;;;;;;5088389;28;20052;-73
2022/06/30 04:34:07;;;;;;;18.40;4.25;;;;;;;;;;5079026;28;20067;-76
2022/06/30 04:36:33;;;;;;;12.45;4.00;;;;;;;;;;5082304;28;20059;-72
2022/06/30 04:38:59;;;;;;;6.25;4.10;;;;;;;;;;5093434;28;20095;-71
2022/06/30 04:41:25;;;;;;;11.38;4.32;;;;;;;;;;5083967;28;20031;-71
2022/06/30 04:43:55;;;;;;;7.95;4.43;;;;;;;;;;5079286;28;20059;-71
2022/06/30 04:46:22;;;;;;;7.68;3.90;;;;;;;;;;5076502;28;20024;-73
2022/06/30 04:48:48;;;;;;;8.05;4.32;;;;;;;;;;5076011;28;20494;-74
2022/06/30 04:51:14;;;;;;;11.38;4.57;;;;;;;;;;5083251;28;20036;-72
2022/06/30 04:53:41;;;;;;;8.18;4.53;;;;;;;;;;5076790;28;20056;-77
2022/06/30 04:56:07;;;;;;;8.70;4.50;;;;;;;;;;5090872;28;20036;-72
2022/06/30 04:58:33;;;;;;;6.68;4.65;;;;;;;;;;5086184;28;20381;-74
2022/06/30 05:01:01;;;;;;;12.32;4.32;;;;;;;;;;5086045;28;20024;-74
2022/06/30 05:03:27;;;;;;;4.82;4.07;;;;;;;;;;5087477;28;20044;-74
2022/06/30 05:05:53;;;;;;;9.80;4.55;;;;;;;;;;5089303;28;20469;-73
2022/06/30 05:08:20;;;;;;;9.52;4.57;;;;;;;;;;5081874;28;20024;-77
2022/06/30 05:10:46;;;;;;;9.50;4.70;;;;;;;;;;5090018;28;20042;-73
2022/06/30 05:13:12;;;;;;;8.25;4.75;;;;;;;;;;5082529;28;20107;-78
2022/06/30 05:15:38;;;;;;;9.43;4.47;;;;;;;;;;5090688;28;20397;-77
2022/06/30 05:18:04;;;;;;;6.75;4.38;;;;;;;;;;5087404;28;20028;-72
2022/06/30 05:20:31;;;;;;;8.95;4.50;;;;;;;;;;5084334;28;20095;-74
2022/06/30 05:22:57;;;;;;;12.50;4.60;;;;;;;;;;5090397;28;20023;-71
2022/06/30 05:28:08;;;;;;;7.75;4.18;;;;;;;;;;5086583;28;20034;-70
2022/06/30 05:30:35;;;;;;;7.53;4.40;;;;;;;;;;5085396;28;20048;-75
2022/06/30 05:33:01;;;;;;;13.13;4.65;;;;;;;;;;5089394;28;20016;-69
2022/06/30 05:35:27;;;;;;;9.60;4.45;;;;;;;;;;5087392;28;20107;-74
2022/06/30 05:37:53;;;;;;;35.30;5.68;;;;;;;;;;5089667;28;20024;-71
2022/06/30 05:40:19;;;;;;;11.20;5.18;;;;;;;;;;5085458;28;20047;-73
2022/06/30 05:42:45;;;;;;;12.35;4.60;;;;;;;;;;5086229;28;20052;-73
2022/06/30 05:45:11;;;;;;;13.35;4.75;;;;;;;;;;5080152;28;20106;-71
2022/06/30 05:48:04;;;;;;;14.23;5.07;;;;;;;;;;5087481;28;20020;-73
2022/06/30 05:50:30;;;;;;;12.68;4.70;;;;;;;;;;5087479;28;20113;-73
2022/06/30 05:52:56;;;;;;;7.65;4.32;;;;;;;;;;5084050;28;20021;-70
2022/06/30 05:55:22;;;;;;;9.85;4.88;;;;;;;;;;5090422;28;20536;-70
2022/06/30 05:58:01;;;;;;;16.67;5.15;;;;;;;;;;5089020;28;20016;-72
2022/06/30 06:00:27;;;;;;;18.42;5.40;;;;;;;;;;5089576;28;20362;-70
2022/06/30 06:02:53;;;;;;;12.82;4.90;;;;;;;;;;5090459;28;20115;-73
2022/06/30 06:05:19;;;;;;;9.27;4.50;;;;;;;;;;5085348;28;20032;-72
2022/06/30 06:07:46;;;;;;;8.52;4.50;;;;;;;;;;5083555;28;20032;-72
2022/06/30 06:10:15;;;;;;;7.30;4.30;;;;;;;;;;5086616;28;20032;-72
2022/06/30 06:12:43;;;;;;;8.85;4.50;;;;;;;;;;5091740;28;20032;-72
2022/06/30 06:15:10;;;;;;;27.88;5.20;;;;;;;;;;5090895;28;20047;-74
2022/06/30 06:17:44;;;;;;;9.10;4.80;;;;;;;;;;5086473;28;20434;-74
2022/06/30 06:20:10;;;;;;;21.38;5.95;;;;;;;;;;5091260;28;20020;-74
2022/06/30 06:22:36;;;;;;;10.18;4.85;;;;;;;;;;5086754;28;20478;-74
2022/06/30 06:25:04;;;;;;;6.97;4.60;;;;;;;;;;5091981;28;20103;-74
2022/06/30 06:27:30;;;;;;;13.07;5.07;;;;;;;;;;5085131;28;20058;-74
2022/06/30 06:29:56;;;;;;;9.45;5.20;;;;;;;;;;5090416;28;20036;-75
2022/06/30 06:32:24;;;;;;;16.90;5.05;;;;;;;;;;5089516;28;20044;-75
2022/06/30 06:34:50;;;;;;;11.88;4.97;;;;;;;;;;5091803;28;20123;-75
2022/06/30 06:37:16;;;;;;;8.15;5.05;;;;;;;;;;5089500;28;20040;-73
2022/06/30 06:39:42;;;;;;;12.25;5.22;;;;;;;;;;5085756;28;20030;-75
2022/06/30 06:42:08;;;;;;;13.18;5.45;;;;;;;;;;5089548;28;20488;-74
2022/06/30 06:44:34;;;;;;;14.85;4.88;;;;;;;;;;5092399;28;20111;-74
2022/06/30 06:47:00;;;;;;;11.43;5.10;;;;;;;;;;5091966;28;20020;-74
2022/06/30 06:49:27;;;;;;;9.75;5.15;;;;;;;;;;5088388;28;20033;-74
2022/06/30 06:51:53;;;;;;;7.68;4.68;;;;;;;;;;5080272;28;20024;-75
2022/06/30 06:54:19;;;;;;;17.25;4.85;;;;;;;;;;5093594;28;20016;-75
2022/06/30 06:56:45;;;;;;;11.05;5.10;;;;;;;;;;5079843;28;20201;-73
2022/06/30 06:59:11;;;;;;;13.52;5.50;;;;;;;;;;5093896;28;20024;-74
2022/06/30 07:01:38;;;;;;;9.52;4.82;;;;;;;;;;5083660;28;20028;-75
2022/06/30 07:04:04;;;;;;;9.15;4.60;;;;;;;;;;5086126;28;20097;-74
2022/06/30 07:06:31;;;;;;;12.35;5.90;;;;;;;;;;5090375;28;20028;-75
2022/06/30 07:08:57;;;;;;;10.70;5.43;;;;;;;;;;5084470;28;20115;-73
2022/06/30 07:11:23;;;;;;;10.82;5.13;;;;;;;;;;5087673;28;20099;-75
2022/06/30 07:13:49;;;;;;;11.18;4.90;;;;;;;;;;5077174;28;20052;-72
2022/06/30 07:16:16;;;;;;;12.85;6.03;;;;;;;;;;5081100;28;20036;-74
2022/06/30 07:18:42;;;;;;;16.55;5.55;;;;;;;;;;5085295;28;20024;-75
2022/06/30 07:21:08;;;;;;;9.80;5.20;;;;;;;;;;5088625;28;20024;-73
2022/06/30 07:23:34;;;;;;;8.85;4.63;;;;;;;;;;5077937;28;20462;-75
2022/06/30 07:26:00;;;;;;;9.15;5.25;;;;;;;;;;5083544;28;20542;-75
2022/06/30 07:28:27;;;;;;;14.52;5.53;;;;;;;;;;5089656;28;20028;-75
2022/06/30 07:30:53;;;;;;;8.63;5.40;;;;;;;;;;5075492;28;20040;-75
2022/06/30 07:33:19;;;;;;;9.07;5.45;;;;;;;;;;5088173;28;20093;-74
2022/06/30 07:35:45;;;;;;;8.50;5.18;;;;;;;;;;5080649;28;20047;-74
2022/06/30 07:38:12;;;;;;;12.50;6.03;;;;;;;;;;5076354;28;20067;-75
2022/06/30 07:40:38;;;;;;;14.90;7.47;;;;;;;;;;5088185;28;20390;-75
2022/06/30 07:43:05;;;;;;;14.43;6.30;;;;;;;;;;5085581;28;20489;-74
2022/06/30 07:45:31;;;;;;;22.23;13.30;;;;;;;;;;5086067;28;20103;-73
2022/06/30 07:47:57;;;;;;;24.50;8.45;;;;;;;;;;5082957;28;20032;-75
2022/06/30 07:50:23;;;;;;;29.45;10.20;;;;;;;;;;5088350;28;20042;-75
2022/06/30 07:52:50;;;;;;;15.82;7.22;;;;;;;;;;5083209;28;20026;-75
2022/06/30 07:55:16;;;;;;;13.52;5.15;;;;;;;;;;5087154;28;20028;-76
2022/06/30 07:57:45;;;;;;;11.10;5.10;;;;;;;;;;5076453;28;20027;-74
2022/06/30 08:00:12;;;;;;;12.23;5.75;;;;;;;;;;5080059;28;20129;-73
2022/06/30 08:02:38;;;;;;;22.02;6.35;;;;;;;;;;5084147;28;20020;-78
2022/06/30 08:05:05;;;;;;;16.33;5.35;;;;;;;;;;5085635;28;20036;-75
2022/06/30 08:07:31;;;;;;;14.95;5.38;;;;;;;;;;5090157;28;20114;-77
2022/06/30 08:09:57;;;;;;;15.77;6.35;;;;;;;;;;5079050;28;20039;-71
2022/06/30 08:12:23;;;;;;;15.10;5.68;;;;;;;;;;5074989;28;20025;-71
2022/06/30 08:14:49;;;;;;;14.65;5.43;;;;;;;;;;5083455;28;20024;-71
2022/06/30 08:17:15;;;;;;;20.92;6.45;;;;;;;;;;5069365;28;20039;-70
2022/06/30 08:19:41;;;;;;;20.25;6.15;;;;;;;;;;5080495;28;20031;-73
2022/06/30 08:22:08;;;;;;;14.88;5.57;;;;;;;;;;5078871;28;20020;-71
2022/06/30 08:24:34;;;;;;;31.55;7.18;;;;;;;;;;5085123;28;20071;-73
2022/06/30 08:27:02;;;;;;;17.80;5.93;;;;;;;;;;5085428;28;20056;-72
2022/06/30 08:29:29;;;;;;;13.48;5.50;;;;;;;;;;5074843;28;20032;-73
2022/06/30 08:31:55;;;;;;;13.48;5.47;;;;;;;;;;5078218;28;20478;-74
2022/06/30 08:34:21;;;;;;;12.93;5.63;;;;;;;;;;5079373;28;20081;-74
2022/06/30 08:36:47;;;;;;;19.10;6.15;;;;;;;;;;5080405;28;20071;-72
2022/06/30 08:42:04;;;;;;;56.42;9.98;;;;;;;;;;5085853;28;20066;-72
2022/06/30 08:44:34;;;;;;;11.40;5.53;;;;;;;;;;5078699;28;20025;-72
2022/06/30 08:47:01;;;;;;;47.92;10.18;;;;;;;;;;5086966;28;20089;-73
2022/06/30 08:49:27;;;;;;;79.68;11.38;;;;;;;;;;5086539;28;20126;-84
2022/06/30 08:51:55;;;;;;;34.13;7.97;;;;;;;;;;5085667;28;20024;-73
2022/06/30 08:54:22;;;;;;;40.90;8.45;;;;;;;;;;5084404;28;20081;-75
2022/06/30 08:56:50;;;;;;;43.05;9.20;;;;;;;;;;5084230;28;20447;-76
2022/06/30 08:59:17;;;;;;;31.20;9.82;;;;;;;;;;5062583;28;20033;-80
2022/06/30 09:01:44;;;;;;;29.05;11.38;;;;;;;;;;5078829;28;20024;-74
2022/06/30 09:04:13;;;;;;;24.52;8.48;;;;;;;;;;5081605;28;20020;-76
2022/06/30 09:06:42;;;;;;;29.02;11.20;;;;;;;;;;5072725;28;20389;-75
2022/06/30 09:09:08;;;;;;;46.75;14.00;;;;;;;;;;5083565;28;20058;-78
2022/06/30 09:11:52;;;;;;;43.17;12.75;;;;;;;;;;5082494;28;20032;-72
2022/06/30 09:14:31;;;;;;;22.17;7.90;;;;;;;;;;5087408;28;20488;-74
2022/06/30 09:16:58;;;;;;;22.98;8.32;;;;;;;;;;5083261;28;20084;-75
2022/06/30 09:19:24;;;;;;;26.35;6.75;;;;;;;;;;5086721;28;20028;-79
2022/06/30 09:22:03;;;;;;;22.48;8.98;;;;;;;;;;5089566;28;20028;-77
2022/06/30 09:24:29;;;;;;;20.90;7.70;;;;;;;;;;5089011;28;20525;-75
2022/06/30 09:27:09;;;;;;;16.45;6.70;;;;;;;;;;5082986;28;20032;-73
2022/06/30 09:29:46;;;;;;;16.42;6.57;;;;;;;;;;5083263;28;20043;-78
2022/06/30 09:32:12;;;;;;;14.05;5.90;;;;;;;;;;5080003;28;20028;-73
2022/06/30 09:34:40;;;;;;;19.80;6.20;;;;;;;;;;5082585;28;20427;-78
2022/06/30 09:37:15;;;;;;;18.92;6.05;;;;;;;;;;5085833;28;20036;-73
2022/06/30 09:39:43;;;;;;;15.52;5.32;;;;;;;;;;5081997;28;20039;-78
2022/06/30 09:42:09;;;;;;;15.95;5.55;;;;;;;;;;5082296;28;20036;-74
2022/06/30 09:44:36;;;;;;;17.90;6.45;;;;;;;;;;5084384;28;20470;-80
2022/06/30 09:47:06;;;;;;;19.23;5.40;;;;;;;;;;5089968;28;20024;-77
2022/06/30 09:49:34;;;;;;;19.48;6.72;;;;;;;;;;5089053;28;20036;-78
2022/06/30 09:52:01;;;;;;;20.50;5.88;;;;;;;;;;5079463;28;20432;-78
2022/06/30 09:54:27;;;;;;;19.38;5.82;;;;;;;;;;5088086;28;20059;-77
2022/06/30 09:57:02;;;;;;;15.70;5.80;;;;;;;;;;5088329;28;20020;-72
2022/06/30 09:59:28;;;;;;;30.90;6.82;;;;;;;;;;5089943;28;20023;-76
2022/06/30 10:01:55;;;;;;;20.27;5.93;;;;;;;;;;5090634;28;20027;-76
2022/06/30 10:04:21;;;;;;;16.98;5.75;;;;;;;;;;5088870;28;20472;-72
2022/06/30 10:06:47;;;;;;;19.92;5.80;;;;;;;;;;5086633;28;20032;-78
2022/06/30 10:09:20;;;;;;;14.82;5.45;;;;;;;;;;5086691;28;20469;-79
2022/06/30 10:11:47;;;;;;;15.73;5.32;;;;;;;;;;5084816;28;20035;-82
2022/06/30 10:14:14;;;;;;;14.40;5.22;;;;;;;;;;5082491;28;20107;-69
2022/06/30 10:16:41;;;;;;;16.17;5.40;;;;;;;;;;5081170;28;20485;-76
2022/06/30 10:19:09;;;;;;;17.52;5.47;;;;;;;;;;5091746;28;20031;-70
2022/06/30 10:21:37;;;;;;;18.05;6.78;;;;;;;;;;5084279;28;20055;-72
2022/06/30 10:24:03;;;;;;;14.07;5.20;;;;;;;;;;5086145;28;20024;-69
2022/06/30 10:29:14;;;;;;;14.70;5.60;;;;;;;;;;5082803;28;20046;-71
2022/06/30 10:31:46;;;;;;;15.95;4.97;;;;;;;;;;5083310;28;20036;-69
2022/06/30 10:34:24;;;;;;;31.43;6.47;;;;;;;;;;5077119;28;20092;-71
2022/06/30 10:37:04;;;;;;;14.95;5.30;;;;;;;;;;5075225;28;20367;-70
2022/06/30 10:39:44;;;;;;;19.15;5.78;;;;;;;;;;5081011;28;20581;-69
2022/06/30 10:42:10;;;;;;;21.02;5.65;;;;;;;;;;5087890;28;20093;-75
2022/06/30 10:44:36;;;;;;;17.83;5.78;;;;;;;;;;5088933;28;20111;-74
2022/06/30 10:47:04;;;;;;;20.40;5.55;;;;;;;;;;5085120;28;20474;-75
2022/06/30 10:49:30;;;;;;;16.65;5.57;;;;;;;;;;5082345;28;20032;-78
2022/06/30 10:52:31;;;;;;;17.10;5.50;;;;;;;;;;5083859;28;20058;-78
2022/06/30 10:55:02;;;;;;;17.58;4.90;;;;;;;;;;4984228;28;20503;-73
2022/06/30 10:57:48;;;;;;;13.75;5.25;;;;;;;;;;4985795;28;20046;-71
2022/06/30 11:00:32;;;;;;;19.23;5.63;;;;;;;;;;4988066;28;20080;-72
2022/06/30 11:02:58;;;;;;;16.02;5.55;;;;;;;;;;4984104;28;20439;-71
2022/06/30 11:05:25;;;;;;;15.40;5.95;;;;;;;;;;4991546;28;20034;-73
2022/06/30 11:07:51;;;;;;;21.48;6.32;;;;;;;;;;4983980;28;20097;-72
2022/06/30 11:10:18;;;;;;;16.80;5.63;;;;;;;;;;4964572;28;20433;-71
2022/06/30 11:12:44;;;;;;;14.43;5.47;;;;;;;;;;4989683;28;20050;-76
2022/06/30 11:15:10;;;;;;;15.38;5.60;;;;;;;;;;4986967;28;20488;-78
2022/06/30 11:17:37;;;;;;;16.77;6.10;;;;;;;;;;4974614;28;20432;-75
2022/06/30 11:20:03;;;;;;;18.45;5.60;;;;;;;;;;4988996;28;20066;-69
2022/06/30 11:22:30;;;;;;;14.80;5.30;;;;;;;;;;4987704;28;20043;-71
2022/06/30 11:24:58;;;;;;;25.20;6.25;;;;;;;;;;4988597;28;20045;-68
2022/06/30 11:27:26;;;;;;;17.15;5.70;;;;;;;;;;4990300;28;20018;-71
2022/06/30 11:29:59;;;;;;;82.65;9.85;;;;;;;;;;5070818;28;20477;-71
2022/06/30 11:32:25;;;;;;;18.05;6.45;;;;;;;;;;5087693;28;20162;-70
2022/06/30 11:34:52;;;;;;;16.92;5.10;;;;;;;;;;5089670;28;20040;-70
2022/06/30 11:37:24;;;;;;;22.10;6.07;;;;;;;;;;5088232;28;20047;-73
2022/06/30 11:40:01;;;;;;;19.30;5.40;;;;;;;;;;5082060;28;20032;-70
2022/06/30 11:42:28;;;;;;;26.45;5.95;;;;;;;;;;5086495;28;20039;-72
2022/06/30 11:44:54;;;;;;;13.30;5.30;;;;;;;;;;5083757;28;20024;-76
2022/06/30 11:47:22;;;;;;;22.65;5.68;;;;;;;;;;5088944;28;20028;-74
2022/06/30 11:49:55;;;;;;;14.40;5.10;;;;;;;;;;5083206;28;20040;-71
2022/06/30 11:52:34;;;;;;;16.50;5.63;;;;;;;;;;5079930;28;20107;-82
2022/06/30 11:55:00;;;;;;;16.20;4.95;;;;;;;;;;5080742;28;20025;-70
2022/06/30 11:57:27;;;;;;;13.55;4.95;;;;;;;;;;5085135;28;20051;-74
2022/06/30 11:59:55;;;;;;;20.63;5.68;;;;;;;;;;5083849;28;20024;-76
2022/06/30 12:02:21;;;;;;;20.27;5.57;;;;;;;;;;5082165;28;20020;-74
2022/06/30 12:04:51;;;;;;;19.10;5.13;;;;;;;;;;5086508;28;20377;-74
2022/06/30 12:07:18;;;;;;;40.00;6.63;;;;;;;;;;5082778;28;20028;-71
2022/06/30 12:09:45;;;;;;;18.60;5.22;;;;;;;;;;5082353;28;20033;-73
2022/06/30 12:12:14;;;;;;;19.98;4.93;;;;;;;;;;5083492;28;20019;-75
2022/06/30 12:14:41;;;;;;;16.15;4.82;;;;;;;;;;5079992;28;20025;-71
2022/06/30 12:17:08;;;;;;;19.45;5.50;;;;;;;;;;5089342;28;20473;-69
2022/06/30 12:19:34;;;;;;;19.85;5.47;;;;;;;;;;5088461;28;20535;-69
2022/06/30 12:22:01;;;;;;;36.58;6.28;;;;;;;;;;5088976;28;20354;-72
2022/06/30 12:24:28;;;;;;;16.80;4.90;;;;;;;;;;5083790;28;20073;-70
2022/06/30 12:26:58;;;;;;;16.60;5.03;;;;;;;;;;5082733;28;20024;-69
2022/06/30 12:29:25;;;;;;;16.63;5.00;;;;;;;;;;5088075;28;20028;-68
2022/06/30 12:32:17;;;;;;;11.13;4.93;;;;;;;;;;5081683;28;20036;-69
2022/06/30 12:34:51;;;;;;;16.03;4.73;;;;;;;;;;5073925;28;20496;-69
2022/06/30 12:37:17;;;;;;;16.35;5.60;;;;;;;;;;5075781;28;20052;-69
2022/06/30 12:39:44;;;;;;;22.95;5.57;;;;;;;;;;5078075;28;20025;-70
2022/06/30 12:42:10;;;;;;;16.88;5.80;;;;;;;;;;5084109;28;20029;-69
2022/06/30 12:44:37;;;;;;;18.63;5.53;;;;;;;;;;5080974;28;20032;-71
2022/06/30 12:47:08;;;;;;;13.45;4.75;;;;;;;;;;5084252;28;20056;-72
2022/06/30 12:49:34;;;;;;;14.80;5.68;;;;;;;;;;5082033;28;20066;-71
2022/06/30 12:52:01;;;;;;;12.88;4.97;;;;;;;;;;5083877;28;20847;-71
2022/06/30 12:54:29;;;;;;;14.75;4.70;;;;;;;;;;5077805;28;20029;-71
2022/06/30 12:57:05;;;;;;;10.38;4.82;;;;;;;;;;5083353;28;20088;-71
2022/06/30 12:59:31;;;;;;;18.83;6.57;;;;;;;;;;5083930;28;20032;-72
2022/06/30 13:02:00;;;;;;;19.65;5.45;;;;;;;;;;5080464;28;20490;-71
2022/06/30 13:04:30;;;;;;;17.27;5.05;;;;;;;;;;5067038;28;20044;-74
2022/06/30 13:06:57;;;;;;;13.48;5.40;;;;;;;;;;5084100;28;20020;-75
2022/06/30 13:09:25;;;;;;;11.70;5.10;;;;;;;;;;5070646;28;20028;-76
2022/06/30 13:11:52;;;;;;;16.23;5.70;;;;;;;;;;5081799;28;20028;-73
2022/06/30 13:14:20;;;;;;;13.43;4.80;;;;;;;;;;5080317;28;20503;-73
2022/06/30 13:16:46;;;;;;;12.48;4.75;;;;;;;;;;5078160;28;20040;-70
2022/06/30 13:19:12;;;;;;;13.40;5.10;;;;;;;;;;5084815;28;20480;-71
2022/06/30 13:21:39;;;;;;;13.88;5.07;;;;;;;;;;5086755;28;20107;-72
2022/06/30 13:24:06;;;;;;;11.85;4.53;;;;;;;;;;5085560;28;20486;-72
2022/06/30 13:26:33;;;;;;;13.40;4.47;;;;;;;;;;5091568;28;20028;-74
2022/06/30 13:28:59;;;;;;;13.10;4.47;;;;;;;;;;5085029;28;20020;-71
2022/06/30 13:31:25;;;;;;;17.13;5.28;;;;;;;;;;5084832;28;20040;-71
2022/06/30 13:33:51;;;;;;;13.35;4.65;;;;;;;;;;5076644;28;20028;-71
2022/06/30 13:36:18;;;;;;;16.98;5.32;;;;;;;;;;5085642;28;20036;-71
2022/06/30 13:38:44;;;;;;;16.48;4.70;;;;;;;;;;5091896;28;20381;-72
2022/06/30 13:41:12;;;;;;;12.05;4.72;;;;;;;;;;5084318;28;20052;-71
2022/06/30 13:43:38;;;;;;;19.05;4.95;;;;;;;;;;5089750;28;20465;-71
2022/06/30 13:46:04;;;;;;;12.27;4.68;;;;;;;;;;5088949;28;20472;-71
2022/06/30 13:48:30;;;;;;;13.55;5.18;;;;;;;;;;5085528;28;20028;-71
2022/06/30 13:50:57;;;;;;;10.85;5.00;;;;;;;;;;5076510;28;20093;-71
2022/06/30 13:53:23;;;;;;;16.67;4.88;;;;;;;;;;5083493;28;20637;-72
2022/06/30 13:55:49;;;;;;;14.95;4.70;;;;;;;;;;5077574;28;20126;-72
2022/06/30 13:58:17;;;;;;;15.75;4.93;;;;;;;;;;5076691;28;20020;-71
2022/06/30 14:00:43;;;;;;;19.17;4.80;;;;;;;;;;5082938;28;20386;-72
2022/06/30 14:03:09;;;;;;;18.50;5.32;;;;;;;;;;5081287;28;20103;-71
2022/06/30 14:05:35;;;;;;;21.52;5.40;;;;;;;;;;5088123;28;20028;-72
2022/06/30 14:08:01;;;;;;;10.75;4.63;;;;;;;;;;5084868;28;20024;-72
2022/06/30 14:10:28;;;;;;;13.30;5.20;;;;;;;;;;5083410;28;20028;-71
2022/06/30 14:12:56;;;;;;;16.23;4.57;;;;;;;;;;5078044;28;20032;-71
2022/06/30 14:15:22;;;;;;;14.30;4.40;;;;;;;;;;5081907;28;20082;-71
2022/06/30 14:17:48;;;;;;;18.58;4.47;;;;;;;;;;5077666;28;20028;-72
2022/06/30 14:20:14;;;;;;;14.85;4.88;;;;;;;;;;5078469;28;20024;-71
2022/06/30 14:22:41;;;;;;;18.67;5.35;;;;;;;;;;5082857;28;20021;-71
2022/06/30 14:25:07;;;;;;;13.32;4.43;;;;;;;;;;5078985;28;20036;-71
2022/06/30 14:27:34;;;;;;;13.55;4.35;;;;;;;;;;5083649;28;20367;-72
2022/06/30 14:30:04;;;;;;;17.60;5.07;;;;;;;;;;5080262;28;20032;-71
2022/06/30 14:32:31;;;;;;;13.82;5.13;;;;;;;;;;5087022;28;20027;-72
2022/06/30 14:34:57;;;;;;;12.48;4.50;;;;;;;;;;5089272;28;20027;-70
2022/06/30 14:37:24;;;;;;;14.60;4.85;;;;;;;;;;5086648;28;20102;-71
2022/06/30 14:39:53;;;;;;;17.67;6.03;;;;;;;;;;5087453;28;20029;-71
2022/06/30 14:45:04;;;;;;;14.85;4.80;;;;;;;;;;5087002;28;20039;-69
2022/06/30 14:47:30;;;;;;;20.73;7.72;;;;;;;;;;5090578;28;20501;-69
2022/06/30 14:49:57;;;;;;;17.95;5.72;;;;;;;;;;5084927;28;20036;-70
2022/06/30 14:52:23;;;;;;;15.52;4.15;;;;;;;;;;5088160;28;20106;-71
2022/06/30 14:54:49;;;;;;;35.15;7.25;;;;;;;;;;5084247;28;20024;-72
2022/06/30 14:57:15;;;;;;;143.82;21.13;;;;;;;;;;5079674;28;20031;-72